Hauptseite
METAR-TAF:

METAR-TAF

Flughäfen :

Izmir, Türkei

Breite: 38-30N, Länge: 027-01E, Höhe: 5 m

METAR: fehlend

Zeit: 15:03 (12:03 UTC)

Prognose

Neuester Wetterbericht von vor 1 Stunde und 23 Minuten, um 10:40 UTC
Gültige Prognose vom 17 um 12 UTC bis 17 um 21 UTC
Wind 2 kt aus unterschiedlichen Richtungen
Sichtweite 10 km oder mehr
Leicht bewölkt in der Höhe von 4000 ft
Durchbrochene Bewölkung in der Höhe von 20000 ft

TAF: LTBL 171040Z 1712/1721 VRB02KT 9999 FEW040 BKN200

Wetterbeobachtungen und Prognosen von mehr als 4000 Flughäfen (METAR und TAF Bericht).

Die verfügbaren Stationen werden durch gelbe und rote Markierungen auf der Karte dargestellt.

Führen Sie die Maus auf sie, um den Namen der Station zu sehen.

Darauf klicken, um die Beobachtung von Wetterbeobachtungen und Prognosen zu sehen.

Um die Karte zu ändern : klicken Sie auf den grünen Tasten mit einem schwarzen Kreuz Zum Vergrößern, auf den grünen Button mit einem Gedankenstrich zu verkleinern, oder auf die grünen Pfeile für benachbarte Karten.


METAR-TAF: